Time;durP1;ratioP1;P1;durP2;ratioP2;P2;SDS_P1;SDS_P2;PMS_P1;PMS_P2;Temp;Humidity;BMP_temperature;BMP_pressure;BME280_temperature;BME280_humidity;BME280_pressure;Samples;Min_cycle;Max_cycle;Signal;HPM_P1;HPM_P2
2020/12/29 00:01:44;;;;;;;20.45;14.03;;;;;;;6.25;100.00;97734.91;1810472;79;21343;-56
2020/12/29 00:04:14;;;;;;;17.17;12.82;;;;;;;6.25;100.00;97733.16;1810232;79;21077;-57
2020/12/29 00:06:49;;;;;;;20.68;13.05;;;;;;;6.27;100.00;97731.81;1774474;80;21164;-56
2020/12/29 00:09:23;;;;;;;16.73;12.35;;;;;;;6.28;100.00;97735.64;1761140;81;21072;-57
2020/12/29 00:11:51;;;;;;;18.95;12.82;;;;;;;6.31;100.00;97739.37;1761319;81;21080;-58
2020/12/29 00:14:18;;;;;;;15.98;12.68;;;;;;;6.33;100.00;97747.88;1761178;81;21356;-58
2020/12/29 00:16:47;;;;;;;14.45;11.88;;;;;;;6.35;100.00;97742.67;1761274;81;21576;-57
2020/12/29 00:19:20;;;;;;;13.18;11.08;;;;;;;6.36;100.00;97741.77;1761204;81;21136;-58
2020/12/29 00:21:48;;;;;;;14.93;12.25;;;;;;;6.38;100.00;97736.08;1761280;81;21120;-58
2020/12/29 00:24:16;;;;;;;14.47;12.45;;;;;;;6.38;100.00;97731.75;1761086;81;21132;-57
2020/12/29 00:26:45;;;;;;;15.35;12.33;;;;;;;6.42;100.00;97726.45;1780013;80;21362;-57
2020/12/29 00:29:12;;;;;;;16.12;12.07;;;;;;;6.42;100.00;97713.54;1793511;80;21934;-58
2020/12/29 00:31:40;;;;;;;16.23;12.30;;;;;;;6.45;100.00;97709.10;1793823;79;21125;-57
2020/12/29 00:34:08;;;;;;;15.88;12.10;;;;;;;6.47;100.00;97699.55;1793685;79;21045;-61
2020/12/29 00:36:36;;;;;;;16.17;12.28;;;;;;;6.51;100.00;97697.68;1793718;80;21145;-57
2020/12/29 00:39:03;;;;;;;17.90;13.45;;;;;;;6.53;100.00;97700.57;1793753;80;21359;-57
2020/12/29 00:41:33;;;;;;;17.45;13.32;;;;;;;6.56;100.00;97697.00;1793540;80;21172;-57
2020/12/29 00:44:00;;;;;;;15.65;12.20;;;;;;;6.57;100.00;97693.06;1793846;80;21506;-57
2020/12/29 00:46:27;;;;;;;15.63;12.53;;;;;;;6.59;100.00;97687.86;1793404;80;22067;-57
2020/12/29 00:48:55;;;;;;;14.23;11.90;;;;;;;6.59;100.00;97689.14;1793577;80;21101;-57
2020/12/29 00:51:23;;;;;;;15.80;12.85;;;;;;;6.59;100.00;97680.95;1793526;80;21366;-57
2020/12/29 00:53:58;;;;;;;16.93;13.53;;;;;;;6.63;100.00;97680.34;1793794;80;21109;-57
2020/12/29 00:56:27;;;;;;;16.48;12.60;;;;;;;6.64;100.00;97669.94;1762543;80;21069;-57
2020/12/29 00:58:55;;;;;;;15.58;12.23;;;;;;;6.65;100.00;97654.02;1793570;79;21139;-57
2020/12/29 01:01:24;;;;;;;15.63;11.93;;;;;;;6.66;100.00;97662.15;1793632;79;21128;-57
2020/12/29 01:04:12;;;;;;;14.83;11.68;;;;;;;6.68;100.00;97666.78;1660625;86;21295;-58
2020/12/29 01:06:40;;;;;;;15.05;11.45;;;;;;;6.66;100.00;97666.86;1660715;86;21094;-57
2020/12/29 01:09:10;;;;;;;17.10;13.00;;;;;;;6.65;100.00;97663.90;1660394;86;21089;-57
2020/12/29 01:11:38;;;;;;;15.32;12.00;;;;;;;6.65;100.00;97654.02;1660714;86;21152;-57
2020/12/29 01:14:06;;;;;;;16.93;12.13;;;;;;;6.67;100.00;97656.08;1660840;86;21141;-57
2020/12/29 01:16:36;;;;;;;20.30;13.32;;;;;;;6.66;100.00;97653.11;1659944;86;21396;-57
2020/12/29 01:19:04;;;;;;;17.87;13.22;;;;;;;6.65;100.00;97650.98;1660635;86;21152;-57
2020/12/29 01:21:32;;;;;;;16.82;13.50;;;;;;;6.64;100.00;97648.45;1660630;86;21561;-57
2020/12/29 01:24:00;;;;;;;17.07;12.47;;;;;;;6.63;100.00;97644.20;1660689;86;21113;-57
2020/12/29 01:26:28;;;;;;;17.15;11.90;;;;;;;6.61;100.00;97637.81;1660100;86;21272;-57
2020/12/29 01:28:56;;;;;;;16.02;12.58;;;;;;;6.59;100.00;97641.39;1634668;86;21401;-57
2020/12/29 01:31:27;;;;;;;23.80;14.75;;;;;;;6.57;100.00;97638.84;1634462;86;21188;-57
2020/12/29 01:34:02;;;;;;;;;;;;;;;6.61;100.00;97623.62;1850229;76;22266;-56
2020/12/29 01:36:29;;;;;;;18.87;12.93;;;;;;;6.55;100.00;97627.76;1817827;79;20228;-56
2020/12/29 01:38:57;;;;;;;17.07;12.65;;;;;;;6.54;100.00;97629.13;1818070;79;21311;-56
2020/12/29 01:41:24;;;;;;;14.93;11.90;;;;;;;6.53;100.00;97611.97;1817751;79;21148;-55
2020/12/29 01:43:52;;;;;;;14.98;12.37;;;;;;;6.52;100.00;97610.30;1818059;79;21030;-56
2020/12/29 01:46:20;;;;;;;14.75;12.10;;;;;;;6.53;100.00;97604.22;1817777;79;21029;-56
2020/12/29 01:48:47;;;;;;;17.40;12.23;;;;;;;6.54;100.00;97605.89;1817904;79;21604;-56
2020/12/29 01:51:15;;;;;;;16.97;12.68;;;;;;;6.53;100.00;97608.09;1817986;79;21402;-59
2020/12/29 01:53:42;;;;;;;17.30;12.55;;;;;;;6.53;100.00;97614.55;1817907;79;21092;-57
2020/12/29 01:56:11;;;;;;;16.97;12.03;;;;;;;6.52;100.00;97598.69;1817966;79;21053;-58
2020/12/29 01:58:41;;;;;;;14.78;11.88;;;;;;;6.50;100.00;97586.27;1787654;79;21109;-58
2020/12/29 02:01:09;;;;;;;16.48;12.28;;;;;;;6.46;100.00;97584.30;1817832;79;21141;-57
2020/12/29 02:03:38;;;;;;;19.32;13.35;;;;;;;6.46;100.00;97597.66;1817845;79;21262;-57
2020/12/29 02:06:05;;;;;;;22.07;13.88;;;;;;;6.43;100.00;97595.23;1817950;79;21152;-58
2020/12/29 02:08:33;;;;;;;21.55;13.80;;;;;;;6.38;100.00;97592.39;1817498;79;21160;-58
2020/12/29 02:11:02;;;;;;;20.97;14.33;;;;;;;6.36;100.00;97587.76;1818025;79;21038;-57
2020/12/29 02:13:40;;;;;;;18.17;13.30;;;;;;;6.33;100.00;97579.30;1817824;79;21490;-58
2020/12/29 02:16:09;;;;;;;14.60;11.73;;;;;;;6.32;100.00;97574.59;1817915;79;21291;-58
2020/12/29 02:18:37;;;;;;;14.33;11.70;;;;;;;6.29;100.00;97576.03;1817537;79;21120;-57
2020/12/29 02:21:05;;;;;;;15.68;12.30;;;;;;;6.24;100.00;97574.10;1817947;79;21092;-57
2020/12/29 02:23:32;;;;;;;16.27;11.80;;;;;;;6.21;100.00;97567.80;1817575;79;21073;-57
2020/12/29 02:26:00;;;;;;;15.15;11.80;;;;;;;6.18;100.00;97557.60;1818036;79;21053;-57
2020/12/29 02:28:28;;;;;;;16.97;12.75;;;;;;;6.13;100.00;97562.15;1817844;79;21187;-58
2020/12/29 02:30:56;;;;;;;13.55;12.03;;;;;;;6.09;100.00;97569.17;1817869;79;21104;-57
2020/12/29 02:33:23;;;;;;;17.77;11.80;;;;;;;6.06;100.00;97547.84;1810977;78;21183;-56
2020/12/29 02:35:51;;;;;;;13.53;11.03;;;;;;;6.04;100.00;97540.15;1806812;78;21916;-56
2020/12/29 02:38:23;;;;;;;16.20;11.68;;;;;;;6.03;100.00;97549.25;1806602;79;21490;-57
2020/12/29 02:40:51;;;;;;;17.65;11.00;;;;;;;6.01;100.00;97535.14;1806937;79;22006;-56
2020/12/29 02:43:18;;;;;;;14.45;11.65;;;;;;;5.99;100.00;97527.09;1806654;79;21501;-57
2020/12/29 02:45:46;;;;;;;15.35;11.53;;;;;;;5.97;100.00;97522.02;1806193;79;21081;-56
2020/12/29 02:48:13;;;;;;;13.75;11.60;;;;;;;5.95;100.00;97522.51;1806119;79;21589;-56
2020/12/29 02:50:41;;;;;;;18.40;11.95;;;;;;;5.94;100.00;97518.72;1806248;79;21562;-56
2020/12/29 02:53:08;;;;;;;12.37;10.58;;;;;;;5.93;100.00;97518.34;1806217;79;21354;-56
2020/12/29 02:55:36;;;;;;;15.15;11.63;;;;;;;5.90;100.00;97506.39;1805872;79;21124;-56
2020/12/29 02:58:04;;;;;;;15.08;11.35;;;;;;;5.89;100.00;97507.73;1806184;79;21093;-56
2020/12/29 03:00:31;;;;;;;14.58;11.12;;;;;;;5.89;100.00;97490.97;1806152;79;21041;-56
2020/12/29 03:02:59;;;;;;;12.53;10.80;;;;;;;5.91;100.00;97483.59;1806277;79;21024;-56
2020/12/29 03:05:26;;;;;;;12.65;10.43;;;;;;;5.94;100.00;97482.61;1805934;79;21549;-56
2020/12/29 03:07:55;;;;;;;12.23;10.10;;;;;;;5.96;100.00;97481.62;1806156;79;21157;-56
2020/12/29 03:10:23;;;;;;;13.60;10.48;;;;;;;6.00;100.00;97488.34;1806067;79;21570;-56
2020/12/29 03:12:50;;;;;;;14.55;10.75;;;;;;;6.03;100.00;97489.47;1806329;79;21498;-56
2020/12/29 03:15:18;;;;;;;14.33;10.45;;;;;;;6.07;100.00;97485.03;1806313;79;21045;-56
2020/12/29 03:17:46;;;;;;;12.13;10.13;;;;;;;6.09;100.00;97480.63;1806192;79;21338;-56
2020/12/29 03:20:14;;;;;;;13.60;10.40;;;;;;;6.13;100.00;97482.18;1806123;79;21128;-56
2020/12/29 03:22:42;;;;;;;12.65;11.20;;;;;;;6.17;100.00;97473.38;1805884;79;21219;-56
2020/12/29 03:25:10;;;;;;;13.38;10.98;;;;;;;6.20;100.00;97460.81;1806184;79;21501;-56
2020/12/29 03:27:39;;;;;;;13.03;10.65;;;;;;;6.20;100.00;97460.35;1806155;79;21124;-56
2020/12/29 03:30:06;;;;;;;12.20;10.35;;;;;;;6.21;100.00;97468.93;1806129;79;21196;-56
2020/12/29 03:32:34;;;;;;;12.93;10.03;;;;;;;6.22;100.00;97471.44;1808088;78;21145;-56
2020/12/29 03:35:01;;;;;;;12.55;9.53;;;;;;;6.23;100.00;97467.11;1823837;78;21038;-57
2020/12/29 03:37:29;;;;;;;11.97;9.48;;;;;;;6.24;100.00;97463.61;1823704;78;21045;-57
2020/12/29 03:39:57;;;;;;;14.13;10.45;;;;;;;6.25;100.00;97461.41;1823926;78;21988;-57
2020/12/29 03:42:25;;;;;;;14.53;11.00;;;;;;;6.27;100.00;97458.30;1823783;78;21334;-57
2020/12/29 03:44:53;;;;;;;15.83;11.12;;;;;;;6.27;100.00;97461.74;1823970;78;21498;-56
2020/12/29 03:47:20;;;;;;;12.40;9.83;;;;;;;6.28;100.00;97462.13;1823720;78;21131;-57
2020/12/29 03:49:48;;;;;;;11.38;9.35;;;;;;;6.29;100.00;97461.21;1824000;78;21489;-58
2020/12/29 03:52:15;;;;;;;13.22;9.85;;;;;;;6.31;100.00;97459.84;1823928;78;21558;-56
2020/12/29 03:54:43;;;;;;;13.00;10.30;;;;;;;6.31;100.00;97459.39;1823825;78;22150;-57
2020/12/29 03:57:11;;;;;;;12.28;9.25;;;;;;;6.35;99.99;97453.64;1823899;78;21064;-57
2020/12/29 03:59:38;;;;;;;13.03;10.38;;;;;;;6.35;99.93;97451.90;1823725;78;21443;-57
2020/12/29 04:02:09;;;;;;;12.75;10.43;;;;;;;6.36;99.82;97447.58;1824090;78;21545;-57
2020/12/29 04:04:37;;;;;;;10.43;8.70;;;;;;;6.37;99.77;97447.49;1823804;78;21104;-57
2020/12/29 04:07:05;;;;;;;11.35;9.30;;;;;;;6.38;99.75;97446.58;1823938;78;22191;-57
2020/12/29 04:09:33;;;;;;;12.18;9.95;;;;;;;6.42;99.68;97449.84;1823629;78;21506;-56
2020/12/29 04:12:01;;;;;;;11.12;8.90;;;;;;;6.45;99.46;97444.55;1823865;78;21467;-56
2020/12/29 04:14:28;;;;;;;11.48;9.20;;;;;;;6.47;99.43;97439.31;1823711;78;21112;-57
2020/12/29 04:16:56;;;;;;;12.35;10.00;;;;;;;6.48;99.34;97438.39;1823865;78;21108;-56
2020/12/29 04:19:24;;;;;;;13.43;11.10;;;;;;;6.48;99.22;97433.23;1823808;78;21159;-58
2020/12/29 04:21:51;;;;;;;15.05;11.33;;;;;;;6.50;99.16;97423.66;1823731;78;21100;-56
2020/12/29 04:24:19;;;;;;;13.15;10.30;;;;;;;6.51;99.02;97422.78;1823938;78;21040;-56
2020/12/29 04:26:47;;;;;;;15.08;11.57;;;;;;;6.55;98.87;97417.84;1823824;78;21854;-56
2020/12/29 04:29:14;;;;;;;12.50;10.78;;;;;;;6.56;98.70;97404.02;1823863;78;21924;-57
2020/12/29 04:31:42;;;;;;;13.50;10.05;;;;;;;6.57;98.60;97410.84;1823900;78;22109;-57
2020/12/29 04:34:09;;;;;;;11.22;9.33;;;;;;;6.58;98.55;97408.67;1822066;78;21068;-57
2020/12/29 04:36:37;;;;;;;12.60;8.95;;;;;;;6.59;98.52;97401.30;1821223;78;21124;-56
2020/12/29 04:39:04;;;;;;;11.55;9.15;;;;;;;6.60;98.35;97389.61;1821137;78;21097;-56
2020/12/29 04:41:32;;;;;;;9.70;8.73;;;;;;;6.64;98.32;97401.89;1821186;78;21485;-56
2020/12/29 04:44:00;;;;;;;10.23;7.97;;;;;;;6.65;98.02;97384.23;1821329;78;21502;-56
2020/12/29 04:46:29;;;;;;;10.93;8.45;;;;;;;6.68;97.98;97384.90;1821040;78;21774;-56
2020/12/29 04:48:58;;;;;;;12.13;9.38;;;;;;;6.71;97.77;97389.06;1766842;78;21113;-56
2020/12/29 04:51:25;;;;;;;9.48;8.18;;;;;;;6.73;97.76;97377.39;1821156;78;21109;-59
2020/12/29 04:53:56;;;;;;;10.35;9.25;;;;;;;6.73;97.69;97371.77;1821254;78;21144;-56
2020/12/29 04:56:32;;;;;;;10.13;8.63;;;;;;;6.77;97.50;97376.31;1821213;78;21348;-56
2020/12/29 04:59:03;;;;;;;10.75;8.10;;;;;;;6.80;97.39;97389.92;1817724;78;21072;-56
2020/12/29 05:01:34;;;;;;;10.85;8.48;;;;;;;6.80;97.20;97380.89;1821120;78;21061;-56
2020/12/29 05:04:02;;;;;;;10.53;8.43;;;;;;;6.82;97.16;97382.92;1821251;78;21069;-56
2020/12/29 05:06:30;;;;;;;9.73;8.43;;;;;;;6.84;97.07;97378.52;1821143;78;21045;-57
2020/12/29 05:08:57;;;;;;;13.38;10.78;;;;;;;6.85;96.96;97386.63;1821242;78;21196;-56
2020/12/29 05:11:25;;;;;;;15.72;10.78;;;;;;;6.87;96.86;97389.97;1791999;78;21999;-56
2020/12/29 05:13:53;;;;;;;12.63;10.55;;;;;;;6.88;96.80;97391.67;1821061;78;21131;-57
2020/12/29 05:16:21;;;;;;;11.73;9.55;;;;;;;6.91;96.68;97391.95;1821135;78;21131;-56
2020/12/29 05:18:48;;;;;;;10.93;9.10;;;;;;;6.92;96.62;97386.70;1821203;78;21126;-56
2020/12/29 05:21:17;;;;;;;9.83;7.67;;;;;;;6.93;96.49;97383.67;1766733;78;21364;-56
2020/12/29 05:23:44;;;;;;;8.88;7.45;;;;;;;6.93;96.47;97383.20;1766193;78;21601;-56
2020/12/29 05:26:12;;;;;;;10.13;8.50;;;;;;;6.94;96.43;97378.42;1821083;78;21039;-56
2020/12/29 05:28:40;;;;;;;8.90;7.45;;;;;;;6.95;96.59;97373.66;1821031;78;21701;-56
2020/12/29 05:31:08;;;;;;;9.78;7.58;;;;;;;6.94;96.71;97371.13;1820964;78;21053;-56
2020/12/29 05:33:36;;;;;;;9.28;8.13;;;;;;;6.94;96.91;97364.21;1815981;78;21409;-56
2020/12/29 05:36:04;;;;;;;8.75;7.80;;;;;;;6.92;97.17;97367.80;1805613;79;21208;-56
2020/12/29 05:38:32;;;;;;;9.78;8.35;;;;;;;6.92;97.23;97366.50;1805223;79;21061;-57
2020/12/29 05:40:59;;;;;;;8.93;7.60;;;;;;;6.92;97.38;97359.59;1741702;79;21049;-56
2020/12/29 05:43:31;;;;;;;9.25;7.80;;;;;;;6.93;97.47;97369.46;1806019;79;21041;-56
2020/12/29 05:46:07;;;;;;;10.40;7.90;;;;;;;6.93;97.55;97362.55;1806048;78;21338;-56
2020/12/29 05:48:35;;;;;;;13.22;9.08;;;;;;;6.93;97.62;97366.88;1806211;79;21119;-56
2020/12/29 05:51:13;;;;;;;9.98;7.95;;;;;;;6.91;97.85;97363.09;1805289;79;21562;-56
2020/12/29 05:53:42;;;;;;;12.85;8.78;;;;;;;6.89;97.91;97364.92;1805087;79;21200;-57
2020/12/29 05:56:09;;;;;;;11.90;9.48;;;;;;;6.88;98.00;97352.92;1801464;78;21928;-57
2020/12/29 05:58:37;;;;;;;15.88;10.18;;;;;;;6.88;98.02;97352.09;1768716;80;21545;-57
2020/12/29 06:01:05;;;;;;;17.25;9.58;;;;;;;6.88;98.01;97347.77;1753151;81;21155;-56
2020/12/29 06:03:33;;;;;;;11.22;8.98;;;;;;;6.90;98.08;97348.97;1757267;80;21084;-56
2020/12/29 06:06:00;;;;;;;14.87;9.85;;;;;;;6.90;98.06;97353.67;1735367;81;21049;-56
2020/12/29 06:08:28;;;;;;;13.30;9.10;;;;;;;6.90;98.01;97347.22;1704738;82;21069;-56
2020/12/29 06:10:59;;;;;;;15.50;9.83;;;;;;;6.91;97.93;97339.84;1795905;78;21154;-57
2020/12/29 06:13:28;;;;;;;14.20;10.72;;;;;;;6.92;97.90;97334.22;1753403;81;22142;-58
2020/12/29 06:15:58;;;;;;;23.55;13.30;;;;;;;6.93;97.70;97331.55;1754254;81;21171;-57
2020/12/29 06:18:36;;;;;;;15.32;10.85;;;;;;;6.96;97.55;97333.16;1753474;79;21111;-61
2020/12/29 06:21:07;;;;;;;13.88;10.05;;;;;;;6.97;97.45;97330.12;1727237;80;21172;-58
2020/12/29 06:23:46;;;;;;;20.30;11.55;;;;;;;6.98;97.32;97326.63;1782945;78;21170;-58
2020/12/29 06:26:19;;;;;;;17.87;12.00;;;;;;;6.99;97.25;97319.25;1797046;78;21212;-60
2020/12/29 06:28:49;;;;;;;13.98;10.28;;;;;;;7.01;97.07;97310.95;1807971;78;21177;-58
2020/12/29 06:31:29;;;;;;;14.65;10.45;;;;;;;7.02;96.98;97299.70;1800207;78;21696;-57
2020/12/29 06:33:58;;;;;;;12.18;9.35;;;;;;;7.02;96.90;97306.16;1800743;78;21160;-58
2020/12/29 06:36:29;;;;;;;16.12;10.75;;;;;;;7.03;96.89;97302.66;1799535;78;21184;-58
2020/12/29 06:39:03;;;;;;;14.47;9.60;;;;;;;7.01;96.84;97304.03;1724872;80;21119;-57
2020/12/29 06:41:33;;;;;;;12.40;9.78;;;;;;;7.01;96.86;97305.78;1776296;80;21144;-57
2020/12/29 06:44:04;;;;;;;17.80;10.88;;;;;;;7.00;96.71;97311.88;1720876;83;21169;-57
2020/12/29 06:46:34;;;;;;;11.45;9.23;;;;;;;7.02;96.71;97304.87;1801460;79;21172;-58
2020/12/29 06:49:19;;;;;;;10.95;8.43;;;;;;;7.02;96.59;97306.16;1805686;79;21190;-57
2020/12/29 06:51:47;;;;;;;12.13;10.08;;;;;;;7.03;96.61;97306.11;1794778;79;21177;-57
2020/12/29 06:54:20;;;;;;;10.05;8.60;;;;;;;7.04;96.49;97301.77;1752415;81;21116;-57
2020/12/29 06:56:58;;;;;;;9.08;8.13;;;;;;;7.05;96.43;97311.19;1752481;81;21074;-58
2020/12/29 06:59:39;;;;;;;9.68;7.62;;;;;;;7.05;96.44;97312.48;1752525;81;21176;-58
2020/12/29 07:02:18;;;;;;;9.28;8.28;;;;;;;7.05;96.49;97309.89;1755223;81;21207;-57
2020/12/29 07:04:54;;;;;;;12.23;7.92;;;;;;;7.05;96.51;97312.48;1754929;81;21100;-58
2020/12/29 07:07:25;;;;;;;10.35;9.25;;;;;;;7.04;96.56;97315.98;1753477;80;28301;-58
2020/12/29 07:10:12;;;;;;;11.22;8.88;;;;;;;7.04;96.75;97326.31;1713225;83;21610;-57
2020/12/29 07:12:46;;;;;;;10.30;8.85;;;;;;;7.03;97.01;97320.73;1739408;82;21652;-57
2020/12/29 07:15:17;;;;;;;12.33;9.75;;;;;;;7.00;97.25;97311.88;1805722;79;21238;-57
2020/12/29 07:18:04;;;;;;;10.82;8.05;;;;;;;6.99;97.41;97306.33;1805967;77;21207;-57
2020/12/29 07:20:34;;;;;;;10.20;8.53;;;;;;;6.97;97.63;97295.25;1811035;78;21045;-56
2020/12/29 07:23:05;;;;;;;10.85;8.70;;;;;;;6.92;97.70;97288.56;1785767;79;21130;-58
2020/12/29 07:25:34;;;;;;;11.63;9.28;;;;;;;6.93;97.78;97284.23;1763906;79;21060;-58
2020/12/29 07:28:06;;;;;;;16.87;10.95;;;;;;;6.93;97.91;97281.65;1723875;81;22213;-55
2020/12/29 07:30:35;;;;;;;9.70;8.38;;;;;;;6.91;97.92;97281.73;1715534;83;21656;-60
2020/12/29 07:33:06;;;;;;;11.15;7.90;;;;;;;6.91;97.93;97270.56;1754875;81;21496;-57
2020/12/29 07:35:36;;;;;;;11.80;8.50;;;;;;;6.91;97.93;97269.28;1732514;82;21191;-57
2020/12/29 07:38:13;;;;;;;8.08;7.08;;;;;;;6.92;97.93;97273.52;1806217;79;21605;-58
2020/12/29 07:40:41;;;;;;;9.73;7.67;;;;;;;6.92;98.04;97276.94;1791144;79;21356;-57
2020/12/29 07:43:10;;;;;;;10.03;8.68;;;;;;;6.90;98.08;97278.78;1784315;80;21180;-57
2020/12/29 07:45:38;;;;;;;7.25;6.55;;;;;;;6.89;98.12;97278.86;1793007;79;21188;-57
2020/12/29 07:48:07;;;;;;;9.53;7.70;;;;;;;6.91;98.12;97283.02;1793977;79;21605;-57
2020/12/29 07:50:37;;;;;;;8.95;6.90;;;;;;;6.91;98.08;97284.31;1785507;80;21089;-57
2020/12/29 07:53:06;;;;;;;9.43;7.40;;;;;;;6.94;98.06;97283.31;1798232;79;22060;-58
2020/12/29 07:55:35;;;;;;;10.60;7.78;;;;;;;6.95;97.93;97283.69;1795373;79;21621;-59
2020/12/29 07:58:03;;;;;;;9.40;7.60;;;;;;;6.97;97.86;97281.88;1784165;79;21631;-58
2020/12/29 08:00:36;;;;;;;7.90;7.10;;;;;;;7.00;97.87;97280.87;1807031;79;22180;-58
2020/12/29 08:03:03;;;;;;;7.53;6.72;;;;;;;7.00;97.96;97283.45;1784600;80;21084;-56
2020/12/29 08:05:32;;;;;;;10.72;8.10;;;;;;;6.96;97.91;97277.63;1784439;79;21247;-58
2020/12/29 08:08:04;;;;;;;8.03;7.20;;;;;;;6.94;98.09;97269.11;1792620;79;21621;-59
2020/12/29 08:10:34;;;;;;;11.28;8.70;;;;;;;6.93;98.12;97265.69;1815230;78;21156;-58
2020/12/29 08:13:11;;;;;;;10.15;7.40;;;;;;;6.92;98.33;97264.02;1807993;78;21593;-58
2020/12/29 08:15:43;;;;;;;9.25;7.05;;;;;;;6.91;98.47;97262.82;1785023;80;21462;-57
2020/12/29 08:18:22;;;;;;;6.95;6.25;;;;;;;6.90;98.54;97267.16;1785375;79;21418;-57
2020/12/29 08:21:00;;;;;;;10.85;7.47;;;;;;;6.88;98.66;97268.16;1815434;79;21156;-57
2020/12/29 08:23:26;;;;;;;10.23;7.83;;;;;;;6.89;98.75;97256.45;1788453;79;21175;-58
2020/12/29 08:25:57;;;;;;;8.95;7.30;;;;;;;6.88;98.96;97269.45;1801245;79;21175;-60
2020/12/29 08:28:37;;;;;;;7.50;6.80;;;;;;;6.89;98.92;97277.11;1797737;79;21160;-59
2020/12/29 08:31:05;;;;;;;7.75;6.25;;;;;;;6.87;98.97;97275.05;1786037;79;21186;-60
2020/12/29 08:33:33;;;;;;;8.88;6.80;;;;;;;6.89;98.90;97274.53;1791331;79;21132;-59
2020/12/29 08:36:04;;;;;;;11.65;8.35;;;;;;;6.90;98.93;97282.66;1785590;78;21092;-61
2020/12/29 08:38:46;;;;;;;12.23;9.23;;;;;;;6.90;98.92;97283.11;1788042;80;21227;-61
2020/12/29 08:41:28;;;;;;;11.88;9.00;;;;;;;6.89;98.91;97291.77;1787679;79;21183;-57
2020/12/29 08:44:01;;;;;;;14.75;10.50;;;;;;;6.90;98.82;97311.06;1785735;78;21323;-58
2020/12/29 08:46:34;;;;;;;13.93;9.88;;;;;;;6.93;98.70;97305.72;1793526;78;21155;-58
2020/12/29 08:49:07;;;;;;;12.20;9.40;;;;;;;6.96;98.59;97294.42;1762774;80;21115;-58
2020/12/29 08:51:43;;;;;;;10.80;8.18;;;;;;;7.01;98.35;97299.33;1787838;80;21151;-58
2020/12/29 08:54:18;;;;;;;9.80;7.12;;;;;;;7.05;98.19;97311.19;1762244;81;21564;-57
2020/12/29 08:56:47;;;;;;;10.93;9.55;;;;;;;7.09;98.16;97329.47;1783813;80;21432;-61
2020/12/29 08:59:20;;;;;;;9.00;8.00;;;;;;;7.15;98.05;97346.78;1803158;78;21116;-59
2020/12/29 09:01:56;;;;;;;8.08;7.10;;;;;;;7.18;97.53;97342.77;1807899;78;21099;-56
2020/12/29 09:04:42;;;;;;;7.15;6.33;;;;;;;7.24;97.08;97338.55;1770983;78;21588;-60
2020/12/29 09:07:15;;;;;;;8.28;6.70;;;;;;;7.30;96.85;97325.77;1800331;78;21607;-62
2020/12/29 09:09:58;;;;;;;8.90;7.78;;;;;;;7.42;96.50;97329.02;1802376;78;21311;-60
2020/12/29 09:12:31;;;;;;;6.70;6.05;;;;;;;7.58;96.26;97319.97;1792245;78;21281;-61
2020/12/29 09:15:05;;;;;;;9.23;7.00;;;;;;;7.76;95.57;97316.38;1777591;78;21170;-62
2020/12/29 09:17:43;;;;;;;6.40;5.03;;;;;;;7.88;94.23;97307.12;1795114;78;21111;-63
2020/12/29 09:20:24;;;;;;;6.08;5.47;;;;;;;7.91;92.23;97306.94;1759147;80;21060;-60
2020/12/29 09:23:10;;;;;;;6.15;5.55;;;;;;;7.91;90.88;97310.81;1794807;78;21356;-62
2020/12/29 09:25:45;;;;;;;4.97;4.47;;;;;;;7.86;90.04;97308.97;1782755;78;21120;-63
2020/12/29 09:28:27;;;;;;;6.00;4.30;;;;;;;7.81;89.75;97313.55;1794209;78;21876;-63
2020/12/29 09:31:10;;;;;;;5.30;4.80;;;;;;;7.79;89.75;97316.22;1787833;78;21186;-61
2020/12/29 09:33:40;;;;;;;7.17;4.45;;;;;;;7.87;89.50;97305.92;1793575;78;21612;-59
2020/12/29 09:36:24;;;;;;;6.15;4.20;;;;;;;8.01;88.51;97311.99;1801653;77;21200;-60
2020/12/29 09:38:57;;;;;;;4.60;4.20;;;;;;;8.18;87.89;97299.86;1729758;80;21183;-64
2020/12/29 09:41:25;;;;;;;4.22;3.75;;;;;;;8.35;86.04;97310.11;1744087;80;21128;-60
2020/12/29 09:43:53;;;;;;;7.10;6.40;;;;;;;8.46;84.31;97310.31;1788249;78;21050;-62
2020/12/29 09:46:24;;;;;;;4.62;3.42;;;;;;;8.52;83.18;97299.61;1730407;81;21176;-62
2020/12/29 09:48:55;;;;;;;4.00;3.50;;;;;;;8.54;80.81;97293.90;1768773;79;21195;-62
2020/12/29 09:51:24;;;;;;;3.27;2.90;;;;;;;8.56;81.56;97306.29;1732317;80;21428;-63
2020/12/29 09:53:52;;;;;;;7.45;5.55;;;;;;;8.56;80.69;97310.63;1762367;78;21177;-60
2020/12/29 09:56:22;;;;;;;4.12;3.60;;;;;;;8.55;79.72;97310.27;1798122;78;21177;-63
2020/12/29 09:58:50;;;;;;;3.52;2.40;;;;;;;8.54;78.88;97305.55;1781058;78;21181;-62
2020/12/29 10:01:19;;;;;;;3.20;2.90;;;;;;;8.54;76.96;97310.73;1728959;82;21388;-60
2020/12/29 10:03:47;;;;;;;4.50;3.65;;;;;;;8.54;76.24;97298.25;1791649;78;21673;-60
2020/12/29 10:06:16;;;;;;;3.22;2.70;;;;;;;8.55;75.80;97314.15;1799266;78;21192;-63
2020/12/29 10:08:44;;;;;;;3.75;3.20;;;;;;;8.52;74.49;97314.31;1731074;81;21205;-64
2020/12/29 10:11:13;;;;;;;2.77;2.50;;;;;;;8.49;75.07;97327.45;1788566;79;21121;-60
2020/12/29 10:13:41;;;;;;;2.40;2.20;;;;;;;8.46;74.92;97331.48;1790108;79;22032;-63
2020/12/29 10:16:09;;;;;;;2.50;2.30;;;;;;;8.41;73.71;97338.23;1753207;80;22004;-62
2020/12/29 10:18:38;;;;;;;2.40;2.20;;;;;;;8.41;73.83;97331.77;1751163;80;21582;-60
2020/12/29 10:21:06;;;;;;;2.50;2.30;;;;;;;8.41;73.82;97333.06;1716988;81;21199;-57
2020/12/29 10:23:34;;;;;;;2.47;2.17;;;;;;;8.40;72.82;97336.58;1747027;80;21168;-56
2020/12/29 10:26:03;;;;;;;2.75;2.27;;;;;;;8.40;72.36;97320.21;1816933;78;21377;-57
2020/12/29 10:28:32;;;;;;;2.27;1.98;;;;;;;8.42;73.35;97343.78;1836238;78;21172;-57
2020/12/29 10:31:02;;;;;;;2.92;2.02;;;;;;;8.45;72.91;97351.83;1837502;77;21077;-58
2020/12/29 10:33:32;;;;;;;2.98;2.75;;;;;;;8.47;72.87;97348.25;1827293;78;22048;-58
2020/12/29 10:36:00;;;;;;;2.20;2.00;;;;;;;8.49;72.37;97354.17;1743225;79;21114;-59
2020/12/29 10:38:28;;;;;;;3.95;1.90;;;;;;;8.48;71.94;97356.39;1746058;82;21362;-56
2020/12/29 10:40:56;;;;;;;1.70;1.60;;;;;;;8.51;71.47;97357.50;1747571;80;21186;-57
2020/12/29 10:43:24;;;;;;;2.27;2.05;;;;;;;8.58;71.46;97364.45;1776350;80;21133;-56
2020/12/29 10:45:52;;;;;;;2.00;1.50;;;;;;;8.63;70.50;97359.03;1763029;80;21122;-57
2020/12/29 10:48:20;;;;;;;2.15;1.85;;;;;;;8.68;71.07;97380.30;1762283;80;21807;-57
2020/12/29 10:50:48;;;;;;;2.30;1.55;;;;;;;8.70;71.32;97359.88;1788579;78;21349;-58
2020/12/29 10:53:15;;;;;;;1.40;1.30;;;;;;;8.74;69.17;97382.08;1756464;80;21191;-59
2020/12/29 10:55:44;;;;;;;1.20;1.10;;;;;;;8.77;67.85;97395.34;1743587;81;21200;-59
2020/12/29 10:58:12;;;;;;;1.77;1.10;;;;;;;8.79;67.67;97391.72;1739356;80;21179;-58
2020/12/29 11:00:40;;;;;;;1.37;1.07;;;;;;;8.79;67.65;97398.20;1777668;78;21149;-59
2020/12/29 11:03:07;;;;;;;0.93;0.90;;;;;;;8.83;67.83;97398.38;1792240;79;21586;-56
2020/12/29 11:05:35;;;;;;;1.42;1.32;;;;;;;8.88;66.20;97411.08;1778892;78;21119;-59
2020/12/29 11:08:03;;;;;;;1.52;1.42;;;;;;;8.95;65.03;97407.67;1758063;79;21128;-58
2020/12/29 11:10:30;;;;;;;1.20;0.90;;;;;;;8.97;65.57;97420.08;1740467;80;21962;-57
2020/12/29 11:12:58;;;;;;;2.08;1.40;;;;;;;8.96;65.23;97428.31;1768305;78;22080;-59
2020/12/29 11:15:26;;;;;;;3.10;1.90;;;;;;;8.97;65.32;97436.92;1752096;80;22456;-57
2020/12/29 11:17:53;;;;;;;1.00;0.90;;;;;;;8.96;65.46;97448.20;1758722;80;21220;-58
2020/12/29 11:20:21;;;;;;;2.58;1.30;;;;;;;8.95;66.01;97453.86;1757494;80;21113;-57
2020/12/29 11:22:49;;;;;;;1.45;0.90;;;;;;;8.95;65.25;97444.78;1837758;78;21554;-57
2020/12/29 11:25:17;;;;;;;1.50;1.20;;;;;;;8.97;64.57;97462.36;1836807;78;21182;-57
2020/12/29 11:27:45;;;;;;;0.80;0.80;;;;;;;9.03;64.66;97465.91;1817863;78;21344;-58
2020/12/29 11:30:12;;;;;;;0.93;0.88;;;;;;;9.11;64.16;97483.61;1767166;78;21135;-58
2020/12/29 11:32:40;;;;;;;2.30;1.10;;;;;;;9.15;64.54;97479.47;1752184;81;21124;-58
2020/12/29 11:35:08;;;;;;;1.32;0.93;;;;;;;9.19;63.35;97484.00;1755146;78;21139;-57
2020/12/29 11:37:36;;;;;;;2.52;1.87;;;;;;;9.22;64.04;97492.91;1760509;81;21123;-58
2020/12/29 11:40:04;;;;;;;1.85;1.30;;;;;;;9.23;64.02;97499.77;1762174;80;23496;-56
2020/12/29 11:42:32;;;;;;;2.33;0.98;;;;;;;9.26;63.90;97514.30;1799606;79;21077;-56
2020/12/29 11:45:00;;;;;;;2.35;1.65;;;;;;;9.28;63.39;97523.64;1799709;79;21172;-56